createdAt,value
2023-02-16T00:02:16.563Z,74.29
2023-02-16T00:04:50.800Z,74.29
2023-02-16T00:07:24.599Z,74.25
2023-02-16T00:09:58.400Z,74.35
2023-02-16T00:12:49.764Z,74.36
2023-02-16T00:15:34.599Z,74.55
2023-02-16T00:18:18.652Z,74.68
2023-02-16T00:20:53.012Z,74.64
2023-02-16T00:23:26.436Z,74.55
2023-02-16T00:26:22.153Z,74.56
2023-02-16T00:28:59.140Z,74.49
2023-02-16T00:31:33.377Z,74.66
2023-02-16T00:34:35.083Z,74.58
2023-02-16T00:37:19.555Z,74.63
2023-02-16T00:39:55.303Z,74.64
2023-02-16T00:42:33.813Z,74.85
2023-02-16T00:45:22.197Z,74.85
2023-02-16T00:47:57.567Z,74.86
2023-02-16T00:50:34.380Z,74.72
2023-02-16T00:53:18.459Z,74.90
2023-02-16T00:55:56.578Z,75.01
2023-02-16T00:58:34.045Z,74.94
2023-02-16T01:01:15.269Z,74.95
2023-02-16T01:03:49.625Z,75.05
2023-02-16T01:06:40.720Z,75.01
2023-02-16T01:09:35.823Z,75.19
2023-02-16T01:12:15.989Z,75.25
2023-02-16T01:14:53.039Z,75.40
2023-02-16T01:17:29.201Z,75.39
2023-02-16T01:20:02.747Z,75.33
2023-02-16T01:22:36.741Z,75.34
2023-02-16T01:25:15.035Z,75.32
2023-02-16T01:27:49.532Z,75.16
2023-02-16T01:30:25.050Z,74.98
2023-02-16T01:32:58.693Z,74.79
2023-02-16T01:35:36.516Z,74.90
2023-02-16T01:38:18.581Z,74.73
2023-02-16T01:41:02.617Z,74.64
2023-02-16T01:43:46.999Z,74.64
2023-02-16T01:46:27.778Z,74.66
2023-02-16T01:49:03.143Z,74.60
2023-02-16T01:51:44.577Z,74.54
2023-02-16T01:54:29.162Z,74.56
2023-02-16T01:57:08.054Z,74.64
2023-02-16T02:00:06.747Z,74.69
2023-02-16T02:02:51.275Z,74.77
2023-02-16T02:05:37.236Z,74.91
2023-02-16T02:08:19.066Z,74.92
2023-02-16T02:11:03.247Z,74.86
2023-02-16T02:13:47.179Z,74.83
2023-02-16T02:16:23.574Z,74.85
2023-02-16T02:18:58.096Z,74.83
2023-02-16T02:22:15.439Z,74.85
2023-02-16T02:25:24.542Z,74.70
2023-02-16T02:28:04.683Z,74.81
2023-02-16T02:30:49.659Z,74.97
2023-02-16T02:33:38.498Z,74.84
2023-02-16T02:36:24.089Z,74.75
2023-02-16T02:39:05.926Z,74.69
2023-02-16T02:42:07.512Z,74.54
2023-02-16T02:44:55.169Z,74.62
2023-02-16T02:47:41.612Z,74.63
2023-02-16T02:51:10.506Z,74.63
2023-02-16T02:53:49.450Z,74.68
2023-02-16T02:56:42.245Z,74.64
2023-02-16T02:59:33.850Z,74.54
2023-02-16T03:02:08.313Z,74.51
2023-02-16T03:04:53.700Z,74.44
2023-02-16T03:07:47.239Z,74.36
2023-02-16T03:10:42.375Z,74.52
2023-02-16T03:13:26.374Z,74.42
2023-02-16T03:16:04.063Z,74.45
2023-02-16T03:19:16.240Z,74.47
2023-02-16T03:22:20.072Z,74.48
2023-02-16T03:25:20.639Z,74.37
2023-02-16T03:28:14.954Z,74.27
2023-02-16T03:30:49.535Z,74.20
2023-02-16T03:33:24.275Z,74.38
2023-02-16T03:36:12.129Z,74.64
2023-02-16T03:38:46.122Z,74.84
2023-02-16T03:41:20.100Z,75.10
2023-02-16T03:43:54.459Z,75.14
2023-02-16T03:46:30.605Z,75.20
2023-02-16T03:49:04.738Z,75.05
2023-02-16T03:51:41.803Z,75.08
2023-02-16T03:54:15.456Z,75.02
2023-02-16T03:56:49.327Z,74.90
2023-02-16T03:59:23.249Z,74.89
2023-02-16T04:01:56.806Z,74.97
2023-02-16T04:04:31.121Z,74.95
2023-02-16T04:07:05.159Z,74.89
2023-02-16T04:09:38.760Z,75.06
2023-02-16T04:12:30.639Z,74.97
2023-02-16T04:15:04.521Z,74.90
2023-02-16T04:17:41.627Z,74.73
2023-02-16T04:20:19.304Z,74.73
2023-02-16T04:23:03.064Z,74.79
2023-02-16T04:25:37.429Z,74.69
2023-02-16T04:28:11.172Z,74.62
2023-02-16T04:30:55.066Z,74.68
2023-02-16T04:33:28.892Z,74.55
2023-02-16T04:36:02.210Z,74.34
2023-02-16T04:38:36.888Z,74.24
2023-02-16T04:41:10.738Z,74.53
2023-02-16T04:43:44.405Z,74.67
2023-02-16T04:46:19.575Z,74.79
2023-02-16T04:49:13.896Z,74.78
2023-02-16T04:51:47.960Z,74.95
2023-02-16T04:54:33.337Z,74.87
2023-02-16T04:57:07.643Z,74.73
2023-02-16T04:59:42.111Z,74.57
2023-02-16T05:02:15.816Z,74.49
2023-02-16T05:04:49.827Z,74.42
2023-02-16T05:07:44.414Z,74.42
2023-02-16T05:10:18.818Z,74.44
2023-02-16T05:13:10.400Z,74.30
2023-02-16T05:15:45.439Z,74.17
2023-02-16T05:18:18.814Z,74.19
2023-02-16T05:21:21.062Z,74.22
2023-02-16T05:23:55.095Z,74.16
2023-02-16T05:26:32.549Z,74.20
2023-02-16T05:29:07.044Z,74.06
2023-02-16T05:31:41.196Z,74.08
2023-02-16T05:34:15.258Z,74.16
2023-02-16T05:37:00.044Z,74.31
2023-02-16T05:39:44.847Z,74.30
2023-02-16T05:42:30.526Z,74.21
2023-02-16T05:45:07.562Z,74.08
2023-02-16T05:47:41.313Z,74.01
2023-02-16T05:50:15.709Z,74.05
2023-02-16T05:52:49.324Z,74.12
2023-02-16T05:55:23.102Z,74.14
2023-02-16T05:57:56.439Z,74.09
2023-02-16T06:00:34.172Z,74.06
2023-02-16T06:03:10.565Z,74.14
2023-02-16T06:06:05.319Z,74.27
2023-02-16T06:08:40.044Z,74.18
2023-02-16T06:11:27.689Z,74.18
2023-02-16T06:14:03.304Z,74.26
2023-02-16T06:16:37.894Z,74.31
2023-02-16T06:19:11.783Z,74.17
2023-02-16T06:21:49.190Z,74.08
2023-02-16T06:24:22.991Z,74.12
2023-02-16T06:26:57.331Z,74.41
2023-02-16T06:29:31.160Z,74.44
2023-02-16T06:32:08.193Z,74.18
2023-02-16T06:34:42.358Z,74.22
2023-02-16T06:37:16.397Z,74.29
2023-02-16T06:39:50.406Z,74.32
2023-02-16T06:42:23.993Z,74.33
2023-02-16T06:44:57.543Z,74.26
2023-02-16T06:47:31.121Z,74.12
2023-02-16T06:50:05.565Z,74.05
2023-02-16T06:52:39.303Z,74.02
2023-02-16T06:55:13.703Z,74.21
2023-02-16T06:57:47.024Z,74.16
2023-02-16T07:00:21.799Z,74.24
2023-02-16T07:02:55.274Z,74.24
2023-02-16T07:05:29.088Z,74.33
2023-02-16T07:08:03.271Z,74.18
2023-02-16T07:10:57.175Z,73.88
2023-02-16T07:13:31.254Z,73.66
2023-02-16T07:16:05.698Z,73.36
2023-02-16T07:18:39.623Z,73.49
2023-02-16T07:21:16.904Z,73.73
2023-02-16T07:23:50.766Z,73.98
2023-02-16T07:26:24.372Z,74.01
2023-02-16T07:28:58.053Z,74.00
2023-02-16T07:31:31.981Z,73.69
2023-02-16T07:34:05.770Z,73.51
2023-02-16T07:36:39.773Z,73.11
2023-02-16T07:39:13.295Z,72.86
2023-02-16T07:41:50.166Z,72.62
2023-02-16T07:44:25.295Z,72.63
2023-02-16T07:46:59.077Z,72.36
2023-02-16T07:49:33.235Z,72.07
2023-02-16T07:52:07.270Z,71.76
2023-02-16T07:54:41.102Z,72.02
2023-02-16T07:57:14.938Z,72.29
2023-02-16T07:59:49.189Z,72.62
2023-02-16T08:02:27.898Z,72.94
2023-02-16T08:05:02.217Z,71.87
2023-02-16T08:07:35.646Z,70.95
2023-02-16T08:10:10.927Z,71.06
2023-02-16T08:12:44.898Z,69.66
2023-02-16T08:15:19.251Z,67.84
2023-02-16T08:17:53.056Z,67.19
2023-02-16T08:20:45.127Z,66.02
2023-02-16T08:23:31.855Z,65.54
2023-02-16T08:26:11.452Z,64.47
2023-02-16T08:28:46.326Z,64.14
2023-02-16T08:31:23.566Z,63.20
2023-02-16T08:34:03.394Z,62.42
2023-02-16T08:36:38.981Z,62.70
2023-02-16T08:39:35.712Z,62.65
2023-02-16T08:42:13.144Z,62.68
2023-02-16T08:44:47.509Z,62.56
2023-02-16T08:47:21.891Z,62.18
2023-02-16T08:49:55.874Z,61.97
2023-02-16T08:52:30.117Z,61.48
2023-02-16T08:55:03.907Z,61.23
2023-02-16T08:57:38.481Z,61.31
2023-02-16T09:00:36.201Z,62.02
2023-02-16T09:03:10.476Z,62.21
2023-02-16T09:05:47.085Z,62.69
2023-02-16T09:08:22.054Z,61.67
2023-02-16T09:11:08.963Z,61.50
2023-02-16T09:14:04.145Z,61.35
2023-02-16T09:16:47.363Z,62.02
2023-02-16T09:19:43.834Z,61.85
2023-02-16T09:22:39.595Z,61.64
2023-02-16T09:25:14.043Z,61.69
2023-02-16T09:27:51.655Z,61.38
2023-02-16T09:30:28.334Z,61.63
2023-02-16T09:33:02.505Z,61.94
2023-02-16T09:35:57.169Z,61.87
2023-02-16T09:38:30.729Z,61.26
2023-02-16T09:41:19.150Z,61.56
2023-02-16T09:43:57.804Z,61.18
2023-02-16T09:46:33.226Z,60.79
2023-02-16T09:49:08.818Z,60.38
2023-02-16T09:51:46.268Z,60.78
2023-02-16T09:54:35.021Z,60.55
2023-02-16T09:57:34.702Z,60.22
2023-02-16T10:00:15.496Z,60.16
2023-02-16T10:02:55.088Z,60.45
2023-02-16T10:05:36.467Z,60.25
2023-02-16T10:08:15.004Z,59.91
2023-02-16T10:10:55.305Z,59.50
2023-02-16T10:13:41.742Z,59.86
2023-02-16T10:16:24.490Z,60.17
2023-02-16T10:19:03.886Z,59.99
2023-02-16T10:21:38.034Z,59.74
2023-02-16T10:24:14.992Z,60.27
2023-02-16T10:26:53.082Z,59.94
2023-02-16T10:29:47.192Z,60.14
2023-02-16T10:32:31.431Z,60.08
2023-02-16T10:35:23.514Z,59.87
2023-02-16T10:38:07.086Z,60.01
2023-02-16T10:40:51.174Z,59.75
2023-02-16T10:43:39.473Z,60.79
2023-02-16T10:46:16.689Z,60.70
2023-02-16T10:48:54.662Z,60.05
2023-02-16T10:51:33.612Z,59.18
2023-02-16T10:54:12.577Z,58.51
2023-02-16T10:56:54.578Z,57.75
2023-02-16T10:59:38.907Z,57.20
2023-02-16T11:02:25.349Z,55.98
2023-02-16T11:05:26.570Z,56.23
2023-02-16T11:08:02.671Z,56.16
2023-02-16T11:10:42.906Z,55.12
2023-02-16T11:13:27.706Z,54.36
2023-02-16T11:16:07.271Z,54.68
2023-02-16T11:19:05.363Z,55.00
2023-02-16T11:21:51.252Z,53.86
2023-02-16T11:24:30.857Z,52.77
2023-02-16T11:27:25.378Z,53.28
2023-02-16T11:30:22.997Z,53.32
2023-02-16T11:33:01.269Z,52.90
2023-02-16T11:35:47.403Z,52.32
2023-02-16T11:38:38.282Z,52.07
2023-02-16T11:41:26.357Z,51.70
2023-02-16T11:44:04.471Z,52.04
2023-02-16T11:46:44.227Z,51.81
2023-02-16T11:49:40.222Z,51.07
2023-02-16T11:52:32.271Z,50.51
2023-02-16T11:55:06.572Z,50.18
2023-02-16T11:57:43.646Z,48.85
2023-02-16T12:00:23.533Z,49.21
2023-02-16T12:03:18.551Z,49.36
2023-02-16T12:06:08.448Z,49.65
2023-02-16T12:09:00.364Z,49.82
2023-02-16T12:12:03.396Z,49.33
2023-02-16T12:14:49.201Z,49.02
2023-02-16T12:17:42.744Z,48.29
2023-02-16T12:20:32.463Z,47.93
2023-02-16T12:23:20.516Z,48.13
2023-02-16T12:26:06.509Z,48.84
2023-02-16T12:28:50.365Z,48.65
2023-02-16T12:31:31.618Z,49.21
2023-02-16T12:34:22.929Z,49.64
2023-02-16T12:37:06.515Z,49.79
2023-02-16T12:39:51.766Z,49.69
2023-02-16T12:42:41.395Z,48.96
2023-02-16T12:45:19.624Z,49.48
2023-02-16T12:47:57.769Z,50.33
2023-02-16T12:50:34.119Z,50.26
2023-02-16T12:53:22.442Z,50.12
2023-02-16T12:56:01.641Z,50.18
2023-02-16T12:58:39.624Z,49.72
2023-02-16T13:01:19.308Z,50.03
2023-02-16T13:03:59.002Z,50.00
2023-02-16T13:06:40.647Z,50.08
2023-02-16T13:09:25.853Z,50.23
2023-02-16T13:12:03.682Z,50.45
2023-02-16T13:14:43.805Z,50.75
2023-02-16T13:17:22.983Z,51.42
2023-02-16T13:19:57.408Z,51.14
2023-02-16T13:22:56.355Z,50.59
2023-02-16T13:25:49.476Z,50.79
2023-02-16T13:28:48.326Z,50.73
2023-02-16T13:31:33.451Z,50.26
2023-02-16T13:34:49.055Z,50.20
2023-02-16T13:37:33.705Z,50.36
2023-02-16T13:40:54.014Z,50.17
2023-02-16T13:43:35.804Z,49.83
2023-02-16T13:46:16.090Z,49.80
2023-02-16T13:48:54.980Z,50.03
2023-02-16T13:51:31.323Z,50.71
2023-02-16T13:54:06.804Z,50.73
2023-02-16T13:56:44.009Z,50.41
2023-02-16T14:00:00.480Z,50.78
2023-02-16T14:02:56.298Z,51.07
2023-02-16T14:05:41.348Z,51.17
2023-02-16T14:08:24.647Z,51.47
2023-02-16T14:11:04.316Z,51.74
2023-02-16T14:13:52.563Z,52.04
2023-02-16T14:16:40.421Z,52.43
2023-02-16T14:19:26.466Z,52.51
2023-02-16T14:22:11.662Z,52.65
2023-02-16T14:24:52.814Z,52.88
2023-02-16T14:27:48.188Z,53.29
2023-02-16T14:30:52.417Z,53.80
2023-02-16T14:33:40.795Z,53.96
2023-02-16T14:36:19.331Z,54.33
2023-02-16T14:38:58.778Z,54.66
2023-02-16T14:41:35.149Z,54.98
2023-02-16T14:44:34.846Z,55.20
2023-02-16T14:47:22.911Z,55.67
2023-02-16T14:50:16.057Z,55.91
2023-02-16T14:53:16.840Z,56.07
2023-02-16T14:56:19.898Z,56.39
2023-02-16T14:59:07.086Z,56.68
2023-02-16T15:01:48.519Z,56.99
2023-02-16T15:04:35.696Z,57.35
2023-02-16T15:07:09.776Z,57.32
2023-02-16T15:09:45.670Z,57.55
2023-02-16T15:12:25.939Z,57.71
2023-02-16T15:15:03.480Z,57.95
2023-02-16T15:17:40.845Z,58.07
2023-02-16T15:20:35.577Z,58.33
2023-02-16T15:23:19.357Z,58.56
2023-02-16T15:26:02.760Z,58.76
2023-02-16T15:28:38.780Z,58.98
2023-02-16T15:31:24.081Z,59.11
2023-02-16T15:34:12.734Z,59.31
2023-02-16T15:36:48.638Z,59.57
2023-02-16T15:39:43.690Z,59.61
2023-02-16T15:42:27.573Z,59.84
2023-02-16T15:44:59.726Z,59.99
2023-02-16T15:47:35.731Z,60.17
2023-02-16T15:50:20.627Z,60.25
2023-02-16T15:53:00.583Z,60.36
2023-02-16T15:55:43.606Z,60.64
2023-02-16T15:58:19.866Z,60.77
2023-02-16T16:00:58.430Z,60.97
2023-02-16T16:03:47.054Z,61.15
2023-02-16T16:06:23.830Z,61.32
2023-02-16T16:09:01.210Z,61.44
2023-02-16T16:11:36.017Z,61.56
2023-02-16T16:14:16.903Z,61.71
2023-02-16T16:16:51.946Z,61.76
2023-02-16T16:19:34.057Z,61.99
2023-02-16T16:22:43.413Z,62.17
2023-02-16T16:25:45.550Z,62.26
2023-02-16T16:28:39.975Z,62.41
2023-02-16T16:31:18.310Z,62.58
2023-02-16T16:34:02.977Z,62.72
2023-02-16T16:36:50.294Z,62.83
2023-02-16T16:39:31.541Z,62.88
2023-02-16T16:42:22.159Z,62.94
2023-02-16T16:45:36.484Z,63.03
2023-02-16T16:48:20.238Z,63.08
2023-02-16T16:51:13.513Z,63.26
2023-02-16T16:54:40.531Z,63.29
2023-02-16T16:57:19.188Z,63.39
2023-02-16T16:59:55.605Z,63.61
2023-02-16T17:02:34.269Z,63.62
2023-02-16T17:05:28.769Z,63.55
2023-02-16T17:08:29.548Z,63.61
2023-02-16T17:11:10.107Z,63.62
2023-02-16T17:13:50.247Z,63.61
2023-02-16T17:16:30.250Z,63.58
2023-02-16T17:19:28.465Z,63.66
2023-02-16T17:22:23.350Z,63.67
2023-02-16T17:24:58.856Z,63.81
2023-02-16T17:27:37.792Z,63.93
2023-02-16T17:30:20.487Z,63.89
2023-02-16T17:32:57.123Z,64.05
2023-02-16T17:35:34.698Z,64.04
2023-02-16T17:38:21.430Z,64.07
2023-02-16T17:41:03.283Z,64.12
2023-02-16T17:43:39.717Z,64.10
2023-02-16T17:46:28.730Z,64.16
2023-02-16T17:49:07.597Z,64.30
2023-02-16T17:52:05.521Z,64.36
2023-02-16T17:54:44.112Z,64.52
2023-02-16T17:57:26.697Z,64.50
2023-02-16T18:00:05.417Z,64.50
2023-02-16T18:02:42.304Z,64.41
2023-02-16T18:05:18.058Z,64.56
2023-02-16T18:07:57.264Z,64.62
2023-02-16T18:10:40.308Z,64.67
2023-02-16T18:13:17.835Z,64.73
2023-02-16T18:15:57.114Z,64.88
2023-02-16T18:18:40.601Z,64.84
2023-02-16T18:21:18.235Z,64.88
2023-02-16T18:23:55.962Z,64.84
2023-02-16T18:26:35.696Z,64.94
2023-02-16T18:29:15.318Z,64.94
2023-02-16T18:31:54.345Z,64.99
2023-02-16T18:34:40.702Z,65.13
2023-02-16T18:37:26.752Z,65.17
2023-02-16T18:40:05.465Z,65.15
2023-02-16T18:42:46.586Z,65.21
2023-02-16T18:45:30.017Z,65.32
2023-02-16T18:48:08.766Z,65.30
2023-02-16T18:50:49.713Z,65.27
2023-02-16T18:53:25.515Z,65.26
2023-02-16T18:56:30.625Z,65.43
2023-02-16T18:59:09.837Z,65.50
2023-02-16T19:01:46.246Z,65.48
2023-02-16T19:04:26.111Z,65.64
2023-02-16T19:07:03.496Z,65.59
2023-02-16T19:09:42.623Z,65.70
2023-02-16T19:12:32.510Z,65.70
2023-02-16T19:15:11.556Z,65.70
2023-02-16T19:17:51.467Z,65.81
2023-02-16T19:20:38.252Z,65.88
2023-02-16T19:23:16.842Z,65.98
2023-02-16T19:25:55.832Z,66.13
2023-02-16T19:28:33.543Z,66.14
2023-02-16T19:31:19.372Z,66.08
2023-02-16T19:33:57.899Z,66.20
2023-02-16T19:36:38.397Z,66.30
2023-02-16T19:39:20.824Z,66.24
2023-02-16T19:42:00.618Z,66.31
2023-02-16T19:44:47.440Z,66.44
2023-02-16T19:47:25.656Z,66.38
2023-02-16T19:50:05.208Z,66.43
2023-02-16T19:52:57.318Z,66.43
2023-02-16T19:55:35.377Z,66.61
2023-02-16T19:58:15.405Z,66.63
2023-02-16T20:01:02.200Z,66.69
2023-02-16T20:03:43.267Z,66.68
2023-02-16T20:06:40.420Z,66.72
2023-02-16T20:09:24.420Z,66.83
2023-02-16T20:12:16.894Z,66.95
2023-02-16T20:14:56.872Z,66.96
2023-02-16T20:17:37.054Z,66.96
2023-02-16T20:20:18.863Z,67.17
2023-02-16T20:22:57.330Z,67.24
2023-02-16T20:25:36.249Z,67.34
2023-02-16T20:28:14.133Z,67.43
2023-02-16T20:30:53.082Z,67.50
2023-02-16T20:33:35.751Z,67.65
2023-02-16T20:36:14.307Z,67.65
2023-02-16T20:38:54.549Z,67.61
2023-02-16T20:41:36.238Z,67.67
2023-02-16T20:44:15.435Z,67.73
2023-02-16T20:46:56.444Z,67.86
2023-02-16T20:49:35.163Z,67.96
2023-02-16T20:52:13.166Z,67.99
2023-02-16T20:54:50.741Z,68.01
2023-02-16T20:57:31.192Z,67.97
2023-02-16T21:00:14.093Z,67.96
2023-02-16T21:02:57.825Z,68.06
2023-02-16T21:05:35.931Z,68.20
2023-02-16T21:08:23.250Z,68.21
2023-02-16T21:11:00.091Z,68.20
2023-02-16T21:13:40.904Z,68.13
2023-02-16T21:16:16.762Z,68.16
2023-02-16T21:18:54.138Z,68.17
2023-02-16T21:21:34.499Z,68.13
2023-02-16T21:24:12.261Z,68.30
2023-02-16T21:26:49.275Z,68.31
2023-02-16T21:29:32.861Z,68.42
2023-02-16T21:32:08.188Z,68.34
2023-02-16T21:34:44.090Z,68.31
2023-02-16T21:37:19.158Z,68.36
2023-02-16T21:40:11.195Z,68.56
2023-02-16T21:42:46.632Z,68.59
2023-02-16T21:45:21.732Z,68.76
2023-02-16T21:48:12.798Z,68.64
2023-02-16T21:50:46.788Z,68.74
2023-02-16T21:53:21.627Z,68.76
2023-02-16T21:56:13.186Z,68.84
2023-02-16T21:58:48.477Z,68.85
2023-02-16T22:01:27.079Z,68.76
2023-02-16T22:04:02.223Z,68.75
2023-02-16T22:06:39.608Z,68.77
2023-02-16T22:09:15.924Z,68.79
2023-02-16T22:11:50.611Z,68.89
2023-02-16T22:14:24.622Z,68.81
2023-02-16T22:16:58.176Z,68.88
2023-02-16T22:19:31.931Z,68.95
2023-02-16T22:22:05.723Z,68.93
2023-02-16T22:24:39.483Z,68.87
2023-02-16T22:27:13.382Z,69.01
2023-02-16T22:29:47.626Z,69.03
2023-02-16T22:32:31.220Z,69.00
2023-02-16T22:35:16.493Z,69.04
2023-02-16T22:37:50.131Z,69.04
2023-02-16T22:40:27.217Z,69.00
2023-02-16T22:43:00.992Z,68.99
2023-02-16T22:45:35.048Z,68.90
2023-02-16T22:48:09.249Z,68.96
2023-02-16T22:50:43.132Z,68.90
2023-02-16T22:53:17.208Z,68.92
2023-02-16T22:55:51.101Z,68.90
2023-02-16T22:58:25.287Z,68.83
2023-02-16T23:00:59.122Z,68.92
2023-02-16T23:03:32.650Z,68.93
2023-02-16T23:06:15.989Z,68.85
2023-02-16T23:08:53.428Z,68.90
2023-02-16T23:11:29.009Z,68.89
2023-02-16T23:14:02.964Z,68.91
2023-02-16T23:16:36.938Z,68.99
2023-02-16T23:19:13.110Z,68.85
2023-02-16T23:21:46.674Z,68.90
2023-02-16T23:24:22.156Z,68.88
2023-02-16T23:26:56.750Z,68.95
2023-02-16T23:29:31.823Z,68.89
2023-02-16T23:32:06.112Z,68.87
2023-02-16T23:34:39.979Z,68.79
2023-02-16T23:37:13.721Z,68.80
2023-02-16T23:39:48.174Z,68.69
2023-02-16T23:42:22.031Z,68.74
2023-02-16T23:44:56.666Z,68.75
2023-02-16T23:47:30.415Z,68.78
2023-02-16T23:50:04.119Z,68.73
2023-02-16T23:52:37.889Z,68.83
2023-02-16T23:55:11.852Z,68.90
2023-02-16T23:57:45.601Z,68.94
